sensor_id;sensor_type;location;lat;lon;timestamp;P1;durP1;ratioP1;P2;durP2;ratioP2
3779;SDS011;1905;52.482;9.802;2023-03-11T00:00:45;15.87;;;7.07;;
3779;SDS011;1905;52.482;9.802;2023-03-11T00:03:14;7.90;;;6.13;;
3779;SDS011;1905;52.482;9.802;2023-03-11T00:05:45;10.33;;;5.70;;
3779;SDS011;1905;52.482;9.802;2023-03-11T00:08:14;9.27;;;6.10;;
3779;SDS011;1905;52.482;9.802;2023-03-11T00:10:45;6.77;;;5.40;;
3779;SDS011;1905;52.482;9.802;2023-03-11T00:13:15;11.93;;;6.40;;
3779;SDS011;1905;52.482;9.802;2023-03-11T00:15:43;10.40;;;5.80;;
3779;SDS011;1905;52.482;9.802;2023-03-11T00:18:13;6.93;;;5.60;;
3779;SDS011;1905;52.482;9.802;2023-03-11T00:20:42;12.17;;;7.43;;
3779;SDS011;1905;52.482;9.802;2023-03-11T00:23:12;10.77;;;7.60;;
3779;SDS011;1905;52.482;9.802;2023-03-11T00:25:45;12.53;;;6.70;;
3779;SDS011;1905;52.482;9.802;2023-03-11T00:28:13;9.50;;;6.30;;
3779;SDS011;1905;52.482;9.802;2023-03-11T00:30:42;9.47;;;5.77;;
3779;SDS011;1905;52.482;9.802;2023-03-11T00:33:11;8.77;;;7.10;;
3779;SDS011;1905;52.482;9.802;2023-03-11T00:35:40;13.63;;;6.70;;
3779;SDS011;1905;52.482;9.802;2023-03-11T00:38:10;9.60;;;6.20;;
3779;SDS011;1905;52.482;9.802;2023-03-11T00:40:45;10.53;;;6.23;;
3779;SDS011;1905;52.482;9.802;2023-03-11T00:43:14;10.17;;;7.23;;
3779;SDS011;1905;52.482;9.802;2023-03-11T00:45:42;12.73;;;7.13;;
3779;SDS011;1905;52.482;9.802;2023-03-11T00:48:11;6.27;;;5.70;;
3779;SDS011;1905;52.482;9.802;2023-03-11T00:50:40;10.77;;;7.07;;
3779;SDS011;1905;52.482;9.802;2023-03-11T00:53:08;8.90;;;5.53;;
3779;SDS011;1905;52.482;9.802;2023-03-11T00:55:39;6.60;;;5.73;;
3779;SDS011;1905;52.482;9.802;2023-03-11T00:58:11;8.70;;;6.37;;
3779;SDS011;1905;52.482;9.802;2023-03-11T01:00:43;9.40;;;5.67;;
3779;SDS011;1905;52.482;9.802;2023-03-11T01:03:11;8.30;;;5.17;;
3779;SDS011;1905;52.482;9.802;2023-03-11T01:05:38;8.90;;;5.73;;
3779;SDS011;1905;52.482;9.802;2023-03-11T01:08:06;10.57;;;5.30;;
3779;SDS011;1905;52.482;9.802;2023-03-11T01:10:34;11.00;;;5.93;;
3779;SDS011;1905;52.482;9.802;2023-03-11T01:13:03;7.87;;;5.03;;
3779;SDS011;1905;52.482;9.802;2023-03-11T01:15:32;11.00;;;5.50;;
3779;SDS011;1905;52.482;9.802;2023-03-11T01:18:01;5.30;;;4.10;;
3779;SDS011;1905;52.482;9.802;2023-03-11T01:20:32;8.37;;;5.60;;
3779;SDS011;1905;52.482;9.802;2023-03-11T01:22:59;6.27;;;4.40;;
3779;SDS011;1905;52.482;9.802;2023-03-11T01:25:27;6.53;;;4.57;;
3779;SDS011;1905;52.482;9.802;2023-03-11T01:27:56;5.90;;;4.47;;
3779;SDS011;1905;52.482;9.802;2023-03-11T01:30:25;5.87;;;3.93;;
3779;SDS011;1905;52.482;9.802;2023-03-11T01:32:54;6.40;;;4.43;;
3779;SDS011;1905;52.482;9.802;2023-03-11T01:35:23;6.00;;;4.00;;
3779;SDS011;1905;52.482;9.802;2023-03-11T01:37:52;6.30;;;3.83;;
3779;SDS011;1905;52.482;9.802;2023-03-11T01:40:21;2.40;;;1.80;;
3779;SDS011;1905;52.482;9.802;2023-03-11T01:42:52;6.00;;;3.83;;
3779;SDS011;1905;52.482;9.802;2023-03-11T01:45:30;6.83;;;3.63;;
3779;SDS011;1905;52.482;9.802;2023-03-11T01:48:05;4.63;;;3.40;;
3779;SDS011;1905;52.482;9.802;2023-03-11T01:50:34;4.57;;;3.37;;
3779;SDS011;1905;52.482;9.802;2023-03-11T01:53:04;2.97;;;2.43;;
3779;SDS011;1905;52.482;9.802;2023-03-11T01:55:32;3.23;;;2.93;;
3779;SDS011;1905;52.482;9.802;2023-03-11T01:58:01;6.40;;;2.83;;
3779;SDS011;1905;52.482;9.802;2023-03-11T02:00:33;3.27;;;2.60;;
3779;SDS011;1905;52.482;9.802;2023-03-11T02:03:05;3.70;;;2.27;;
3779;SDS011;1905;52.482;9.802;2023-03-11T02:05:36;3.70;;;3.30;;
3779;SDS011;1905;52.482;9.802;2023-03-11T02:08:07;3.70;;;3.40;;
3779;SDS011;1905;52.482;9.802;2023-03-11T02:10:36;3.43;;;2.87;;
3779;SDS011;1905;52.482;9.802;2023-03-11T02:13:04;3.67;;;3.03;;
3779;SDS011;1905;52.482;9.802;2023-03-11T02:15:32;9.13;;;2.50;;
3779;SDS011;1905;52.482;9.802;2023-03-11T02:18:04;3.23;;;2.77;;
3779;SDS011;1905;52.482;9.802;2023-03-11T02:20:35;4.67;;;3.13;;
3779;SDS011;1905;52.482;9.802;2023-03-11T02:23:10;5.00;;;3.70;;
3779;SDS011;1905;52.482;9.802;2023-03-11T02:25:41;2.97;;;2.53;;
3779;SDS011;1905;52.482;9.802;2023-03-11T02:28:17;3.73;;;2.87;;
3779;SDS011;1905;52.482;9.802;2023-03-11T02:30:47;4.73;;;3.50;;
3779;SDS011;1905;52.482;9.802;2023-03-11T02:33:17;3.93;;;2.50;;
3779;SDS011;1905;52.482;9.802;2023-03-11T02:35:46;2.20;;;1.97;;
3779;SDS011;1905;52.482;9.802;2023-03-11T02:38:13;4.70;;;2.57;;
3779;SDS011;1905;52.482;9.802;2023-03-11T02:40:49;3.33;;;2.57;;
3779;SDS011;1905;52.482;9.802;2023-03-11T02:43:23;3.93;;;2.47;;
3779;SDS011;1905;52.482;9.802;2023-03-11T02:45:56;2.40;;;2.20;;
3779;SDS011;1905;52.482;9.802;2023-03-11T02:48:24;2.40;;;2.03;;
3779;SDS011;1905;52.482;9.802;2023-03-11T02:50:52;3.57;;;2.10;;
3779;SDS011;1905;52.482;9.802;2023-03-11T02:53:20;3.20;;;2.93;;
3779;SDS011;1905;52.482;9.802;2023-03-11T02:55:47;4.13;;;2.50;;
3779;SDS011;1905;52.482;9.802;2023-03-11T02:58:15;3.20;;;2.67;;
3779;SDS011;1905;52.482;9.802;2023-03-11T03:00:44;3.10;;;2.90;;
3779;SDS011;1905;52.482;9.802;2023-03-11T03:03:12;2.40;;;2.20;;
3779;SDS011;1905;52.482;9.802;2023-03-11T03:05:40;3.07;;;2.07;;
3779;SDS011;1905;52.482;9.802;2023-03-11T03:08:08;2.40;;;1.90;;
3779;SDS011;1905;52.482;9.802;2023-03-11T03:10:37;4.20;;;2.40;;
3779;SDS011;1905;52.482;9.802;2023-03-11T03:13:04;3.17;;;1.93;;
3779;SDS011;1905;52.482;9.802;2023-03-11T03:15:32;3.63;;;2.63;;
3779;SDS011;1905;52.482;9.802;2023-03-11T03:18:01;2.50;;;2.30;;
3779;SDS011;1905;52.482;9.802;2023-03-11T03:20:29;5.40;;;2.17;;
3779;SDS011;1905;52.482;9.802;2023-03-11T03:22:59;2.37;;;2.17;;
3779;SDS011;1905;52.482;9.802;2023-03-11T03:25:29;5.70;;;2.90;;
3779;SDS011;1905;52.482;9.802;2023-03-11T03:28:01;1.90;;;1.70;;
3779;SDS011;1905;52.482;9.802;2023-03-11T03:30:31;1.90;;;1.80;;
3779;SDS011;1905;52.482;9.802;2023-03-11T03:33:00;2.47;;;2.30;;
3779;SDS011;1905;52.482;9.802;2023-03-11T03:35:29;2.57;;;2.37;;
3779;SDS011;1905;52.482;9.802;2023-03-11T03:38:03;2.50;;;2.20;;
3779;SDS011;1905;52.482;9.802;2023-03-11T03:40:31;3.80;;;2.80;;
3779;SDS011;1905;52.482;9.802;2023-03-11T03:43:02;2.40;;;2.20;;
3779;SDS011;1905;52.482;9.802;2023-03-11T03:45:31;2.37;;;2.07;;
3779;SDS011;1905;52.482;9.802;2023-03-11T03:48:00;2.87;;;1.90;;
3779;SDS011;1905;52.482;9.802;2023-03-11T03:50:31;5.40;;;2.13;;
3779;SDS011;1905;52.482;9.802;2023-03-11T03:52:59;4.00;;;2.30;;
3779;SDS011;1905;52.482;9.802;2023-03-11T03:55:27;2.03;;;1.90;;
3779;SDS011;1905;52.482;9.802;2023-03-11T03:57:56;2.93;;;2.30;;
3779;SDS011;1905;52.482;9.802;2023-03-11T04:00:28;2.50;;;2.30;;
3779;SDS011;1905;52.482;9.802;2023-03-11T04:03:01;6.50;;;2.27;;
3779;SDS011;1905;52.482;9.802;2023-03-11T04:05:40;2.50;;;2.30;;
3779;SDS011;1905;52.482;9.802;2023-03-11T04:08:08;2.00;;;1.90;;
3779;SDS011;1905;52.482;9.802;2023-03-11T04:10:35;2.63;;;2.13;;
3779;SDS011;1905;52.482;9.802;2023-03-11T04:13:03;23.63;;;2.57;;
3779;SDS011;1905;52.482;9.802;2023-03-11T04:15:31;4.17;;;2.50;;
3779;SDS011;1905;52.482;9.802;2023-03-11T04:18:00;3.20;;;2.10;;
3779;SDS011;1905;52.482;9.802;2023-03-11T04:20:28;3.20;;;2.77;;
3779;SDS011;1905;52.482;9.802;2023-03-11T04:22:55;5.73;;;3.10;;
3779;SDS011;1905;52.482;9.802;2023-03-11T04:25:23;7.13;;;3.43;;
3779;SDS011;1905;52.482;9.802;2023-03-11T04:27:51;3.93;;;2.30;;
3779;SDS011;1905;52.482;9.802;2023-03-11T04:30:19;4.60;;;2.40;;
3779;SDS011;1905;52.482;9.802;2023-03-11T04:32:51;5.87;;;2.73;;
3779;SDS011;1905;52.482;9.802;2023-03-11T04:35:20;2.50;;;2.27;;
3779;SDS011;1905;52.482;9.802;2023-03-11T04:37:48;6.20;;;2.50;;
3779;SDS011;1905;52.482;9.802;2023-03-11T04:40:16;3.43;;;1.90;;
3779;SDS011;1905;52.482;9.802;2023-03-11T04:42:44;3.43;;;2.73;;
3779;SDS011;1905;52.482;9.802;2023-03-11T04:45:12;3.53;;;2.70;;
3779;SDS011;1905;52.482;9.802;2023-03-11T04:47:42;5.10;;;1.97;;
3779;SDS011;1905;52.482;9.802;2023-03-11T04:50:09;3.27;;;1.90;;
3779;SDS011;1905;52.482;9.802;2023-03-11T04:52:41;2.57;;;2.37;;
3779;SDS011;1905;52.482;9.802;2023-03-11T04:55:09;2.70;;;1.70;;
3779;SDS011;1905;52.482;9.802;2023-03-11T04:57:40;8.83;;;2.40;;
3779;SDS011;1905;52.482;9.802;2023-03-11T05:00:11;11.63;;;2.40;;
3779;SDS011;1905;52.482;9.802;2023-03-11T05:02:44;1.73;;;1.63;;
3779;SDS011;1905;52.482;9.802;2023-03-11T05:05:12;4.70;;;1.63;;
3779;SDS011;1905;52.482;9.802;2023-03-11T05:07:42;1.80;;;1.70;;
3779;SDS011;1905;52.482;9.802;2023-03-11T05:10:11;1.93;;;1.60;;
3779;SDS011;1905;52.482;9.802;2023-03-11T05:12:39;2.80;;;2.17;;
3779;SDS011;1905;52.482;9.802;2023-03-11T05:15:07;2.70;;;1.87;;
3779;SDS011;1905;52.482;9.802;2023-03-11T05:17:35;3.20;;;2.40;;
3779;SDS011;1905;52.482;9.802;2023-03-11T05:20:04;2.27;;;1.50;;
3779;SDS011;1905;52.482;9.802;2023-03-11T05:22:33;2.73;;;2.00;;
3779;SDS011;1905;52.482;9.802;2023-03-11T05:25:02;2.30;;;2.10;;
3779;SDS011;1905;52.482;9.802;2023-03-11T05:27:31;3.23;;;2.37;;
3779;SDS011;1905;52.482;9.802;2023-03-11T05:29:59;2.67;;;2.47;;
3779;SDS011;1905;52.482;9.802;2023-03-11T05:32:29;1.90;;;1.80;;
3779;SDS011;1905;52.482;9.802;2023-03-11T05:34:57;2.60;;;1.53;;
3779;SDS011;1905;52.482;9.802;2023-03-11T05:37:25;1.93;;;1.83;;
3779;SDS011;1905;52.482;9.802;2023-03-11T05:39:54;1.90;;;1.80;;
3779;SDS011;1905;52.482;9.802;2023-03-11T05:42:23;4.93;;;2.17;;
3779;SDS011;1905;52.482;9.802;2023-03-11T05:44:53;3.00;;;1.90;;
3779;SDS011;1905;52.482;9.802;2023-03-11T05:47:22;1.57;;;1.47;;
3779;SDS011;1905;52.482;9.802;2023-03-11T05:49:50;3.60;;;1.93;;
3779;SDS011;1905;52.482;9.802;2023-03-11T05:52:18;1.83;;;1.57;;
3779;SDS011;1905;52.482;9.802;2023-03-11T05:54:47;1.70;;;1.60;;
3779;SDS011;1905;52.482;9.802;2023-03-11T05:57:18;2.57;;;1.50;;
3779;SDS011;1905;52.482;9.802;2023-03-11T05:59:47;2.77;;;1.90;;
3779;SDS011;1905;52.482;9.802;2023-03-11T06:02:14;3.03;;;2.23;;
3779;SDS011;1905;52.482;9.802;2023-03-11T06:04:42;7.90;;;2.80;;
3779;SDS011;1905;52.482;9.802;2023-03-11T06:07:10;2.80;;;1.70;;
3779;SDS011;1905;52.482;9.802;2023-03-11T06:09:42;2.70;;;1.60;;
3779;SDS011;1905;52.482;9.802;2023-03-11T06:12:14;2.20;;;1.30;;
3779;SDS011;1905;52.482;9.802;2023-03-11T06:14:52;4.17;;;1.63;;
3779;SDS011;1905;52.482;9.802;2023-03-11T06:17:20;2.07;;;1.87;;
3779;SDS011;1905;52.482;9.802;2023-03-11T06:19:47;5.33;;;1.60;;
3779;SDS011;1905;52.482;9.802;2023-03-11T06:22:16;1.43;;;1.33;;
3779;SDS011;1905;52.482;9.802;2023-03-11T06:24:44;4.03;;;1.80;;
3779;SDS011;1905;52.482;9.802;2023-03-11T06:27:12;2.27;;;1.60;;
3779;SDS011;1905;52.482;9.802;2023-03-11T06:29:40;3.53;;;1.30;;
3779;SDS011;1905;52.482;9.802;2023-03-11T06:32:09;1.60;;;1.27;;
3779;SDS011;1905;52.482;9.802;2023-03-11T06:34:37;3.53;;;1.13;;
3779;SDS011;1905;52.482;9.802;2023-03-11T06:37:05;1.73;;;1.57;;
3779;SDS011;1905;52.482;9.802;2023-03-11T06:39:33;3.47;;;1.60;;
3779;SDS011;1905;52.482;9.802;2023-03-11T06:42:00;2.10;;;1.90;;
3779;SDS011;1905;52.482;9.802;2023-03-11T06:44:28;1.53;;;1.43;;
3779;SDS011;1905;52.482;9.802;2023-03-11T06:46:56;1.40;;;1.30;;
3779;SDS011;1905;52.482;9.802;2023-03-11T06:49:25;1.67;;;1.27;;
3779;SDS011;1905;52.482;9.802;2023-03-11T06:51:53;1.40;;;1.30;;
3779;SDS011;1905;52.482;9.802;2023-03-11T06:54:20;1.40;;;1.27;;
3779;SDS011;1905;52.482;9.802;2023-03-11T06:56:48;5.80;;;1.50;;
3779;SDS011;1905;52.482;9.802;2023-03-11T06:59:16;1.87;;;1.77;;
3779;SDS011;1905;52.482;9.802;2023-03-11T07:01:44;3.83;;;1.47;;
3779;SDS011;1905;52.482;9.802;2023-03-11T07:04:12;1.50;;;1.40;;
3779;SDS011;1905;52.482;9.802;2023-03-11T07:06:43;2.23;;;1.60;;
3779;SDS011;1905;52.482;9.802;2023-03-11T07:09:16;2.20;;;1.57;;
3779;SDS011;1905;52.482;9.802;2023-03-11T07:11:44;2.40;;;1.40;;
3779;SDS011;1905;52.482;9.802;2023-03-11T07:14:17;3.40;;;1.93;;
3779;SDS011;1905;52.482;9.802;2023-03-11T07:16:50;2.60;;;2.40;;
3779;SDS011;1905;52.482;9.802;2023-03-11T07:19:25;3.10;;;1.60;;
3779;SDS011;1905;52.482;9.802;2023-03-11T07:21:54;2.83;;;1.43;;
3779;SDS011;1905;52.482;9.802;2023-03-11T07:24:21;3.27;;;1.67;;
3779;SDS011;1905;52.482;9.802;2023-03-11T07:26:49;2.00;;;1.60;;
3779;SDS011;1905;52.482;9.802;2023-03-11T07:29:16;2.97;;;1.67;;
3779;SDS011;1905;52.482;9.802;2023-03-11T07:31:45;6.00;;;1.63;;
3779;SDS011;1905;52.482;9.802;2023-03-11T07:34:13;2.67;;;1.70;;
3779;SDS011;1905;52.482;9.802;2023-03-11T07:36:40;5.03;;;1.87;;
3779;SDS011;1905;52.482;9.802;2023-03-11T07:39:11;1.33;;;1.10;;
3779;SDS011;1905;52.482;9.802;2023-03-11T07:41:40;5.07;;;1.63;;
3779;SDS011;1905;52.482;9.802;2023-03-11T07:44:09;1.50;;;1.40;;
3779;SDS011;1905;52.482;9.802;2023-03-11T07:46:38;4.03;;;1.63;;
3779;SDS011;1905;52.482;9.802;2023-03-11T07:49:06;1.47;;;1.03;;
3779;SDS011;1905;52.482;9.802;2023-03-11T07:51:34;2.23;;;1.40;;
3779;SDS011;1905;52.482;9.802;2023-03-11T07:54:03;6.20;;;1.87;;
3779;SDS011;1905;52.482;9.802;2023-03-11T07:56:33;1.80;;;1.53;;
3779;SDS011;1905;52.482;9.802;2023-03-11T07:59:02;5.80;;;1.80;;
3779;SDS011;1905;52.482;9.802;2023-03-11T08:01:31;6.23;;;2.57;;
3779;SDS011;1905;52.482;9.802;2023-03-11T08:04:02;5.23;;;1.53;;
3779;SDS011;1905;52.482;9.802;2023-03-11T08:06:31;2.77;;;1.70;;
3779;SDS011;1905;52.482;9.802;2023-03-11T08:09:01;2.27;;;1.80;;
3779;SDS011;1905;52.482;9.802;2023-03-11T08:11:31;1.60;;;1.00;;
3779;SDS011;1905;52.482;9.802;2023-03-11T08:13:59;1.77;;;1.57;;
3779;SDS011;1905;52.482;9.802;2023-03-11T08:16:27;2.43;;;1.60;;
3779;SDS011;1905;52.482;9.802;2023-03-11T08:18:56;2.53;;;1.63;;
3779;SDS011;1905;52.482;9.802;2023-03-11T08:21:24;2.10;;;1.90;;
3779;SDS011;1905;52.482;9.802;2023-03-11T08:23:55;1.80;;;1.07;;
3779;SDS011;1905;52.482;9.802;2023-03-11T08:26:24;1.90;;;1.30;;
3779;SDS011;1905;52.482;9.802;2023-03-11T08:28:53;5.53;;;1.93;;
3779;SDS011;1905;52.482;9.802;2023-03-11T08:31:21;2.40;;;1.40;;
3779;SDS011;1905;52.482;9.802;2023-03-11T08:33:51;4.17;;;1.63;;
3779;SDS011;1905;52.482;9.802;2023-03-11T08:36:20;1.80;;;1.50;;
3779;SDS011;1905;52.482;9.802;2023-03-11T08:38:48;12.23;;;2.23;;
3779;SDS011;1905;52.482;9.802;2023-03-11T08:41:16;2.60;;;1.30;;
3779;SDS011;1905;52.482;9.802;2023-03-11T08:43:44;1.37;;;1.27;;
3779;SDS011;1905;52.482;9.802;2023-03-11T08:46:14;1.33;;;1.20;;
3779;SDS011;1905;52.482;9.802;2023-03-11T08:48:47;2.20;;;1.73;;
3779;SDS011;1905;52.482;9.802;2023-03-11T08:51:15;1.33;;;1.23;;
3779;SDS011;1905;52.482;9.802;2023-03-11T08:53:42;2.83;;;1.93;;
3779;SDS011;1905;52.482;9.802;2023-03-11T08:56:10;4.50;;;1.67;;
3779;SDS011;1905;52.482;9.802;2023-03-11T08:58:38;2.10;;;1.70;;
3779;SDS011;1905;52.482;9.802;2023-03-11T09:01:05;5.50;;;1.80;;
3779;SDS011;1905;52.482;9.802;2023-03-11T09:03:36;2.20;;;2.00;;
3779;SDS011;1905;52.482;9.802;2023-03-11T09:06:05;3.80;;;1.70;;
3779;SDS011;1905;52.482;9.802;2023-03-11T09:08:34;2.20;;;1.37;;
3779;SDS011;1905;52.482;9.802;2023-03-11T09:11:02;3.37;;;1.73;;
3779;SDS011;1905;52.482;9.802;2023-03-11T09:13:30;3.33;;;1.60;;
3779;SDS011;1905;52.482;9.802;2023-03-11T09:15:58;2.57;;;1.73;;
3779;SDS011;1905;52.482;9.802;2023-03-11T09:18:25;2.30;;;1.30;;
3779;SDS011;1905;52.482;9.802;2023-03-11T09:20:55;2.57;;;1.40;;
3779;SDS011;1905;52.482;9.802;2023-03-11T09:23:24;1.30;;;1.20;;
3779;SDS011;1905;52.482;9.802;2023-03-11T09:25:52;7.30;;;1.90;;
3779;SDS011;1905;52.482;9.802;2023-03-11T09:28:19;2.57;;;1.17;;
3779;SDS011;1905;52.482;9.802;2023-03-11T09:30:47;2.70;;;1.73;;
3779;SDS011;1905;52.482;9.802;2023-03-11T09:33:14;1.93;;;1.60;;
3779;SDS011;1905;52.482;9.802;2023-03-11T09:35:42;2.70;;;2.07;;
3779;SDS011;1905;52.482;9.802;2023-03-11T09:38:11;5.10;;;2.10;;
3779;SDS011;1905;52.482;9.802;2023-03-11T09:40:43;1.87;;;1.57;;
3779;SDS011;1905;52.482;9.802;2023-03-11T09:43:20;1.37;;;1.27;;
3779;SDS011;1905;52.482;9.802;2023-03-11T09:45:59;1.57;;;1.47;;
3779;SDS011;1905;52.482;9.802;2023-03-11T09:48:33;2.27;;;1.50;;
3779;SDS011;1905;52.482;9.802;2023-03-11T09:51:07;1.93;;;1.83;;
3779;SDS011;1905;52.482;9.802;2023-03-11T09:53:44;2.20;;;2.00;;
3779;SDS011;1905;52.482;9.802;2023-03-11T09:56:14;4.10;;;2.23;;
3779;SDS011;1905;52.482;9.802;2023-03-11T09:58:45;2.07;;;1.93;;
3779;SDS011;1905;52.482;9.802;2023-03-11T10:01:16;2.10;;;1.77;;
3779;SDS011;1905;52.482;9.802;2023-03-11T10:03:47;2.70;;;2.17;;
3779;SDS011;1905;52.482;9.802;2023-03-11T10:06:18;2.80;;;1.80;;
3779;SDS011;1905;52.482;9.802;2023-03-11T10:08:53;3.57;;;2.27;;
3779;SDS011;1905;52.482;9.802;2023-03-11T10:11:34;3.57;;;1.70;;
3779;SDS011;1905;52.482;9.802;2023-03-11T10:14:14;3.20;;;2.90;;
3779;SDS011;1905;52.482;9.802;2023-03-11T10:17:00;5.43;;;1.80;;
3779;SDS011;1905;52.482;9.802;2023-03-11T10:19:37;3.57;;;2.03;;
3779;SDS011;1905;52.482;9.802;2023-03-11T10:22:16;2.93;;;2.43;;
3779;SDS011;1905;52.482;9.802;2023-03-11T10:25:03;6.07;;;2.30;;
3779;SDS011;1905;52.482;9.802;2023-03-11T10:27:39;3.10;;;2.77;;
3779;SDS011;1905;52.482;9.802;2023-03-11T10:30:14;6.43;;;2.33;;
3779;SDS011;1905;52.482;9.802;2023-03-11T10:32:51;3.13;;;2.23;;
3779;SDS011;1905;52.482;9.802;2023-03-11T10:35:26;6.83;;;2.67;;
3779;SDS011;1905;52.482;9.802;2023-03-11T10:38:02;2.77;;;2.57;;
3779;SDS011;1905;52.482;9.802;2023-03-11T10:40:38;2.77;;;2.57;;
3779;SDS011;1905;52.482;9.802;2023-03-11T10:43:09;10.13;;;2.50;;
3779;SDS011;1905;52.482;9.802;2023-03-11T10:45:40;11.70;;;2.40;;
3779;SDS011;1905;52.482;9.802;2023-03-11T10:48:12;1.63;;;1.40;;
3779;SDS011;1905;52.482;9.802;2023-03-11T10:50:44;2.40;;;1.77;;
3779;SDS011;1905;52.482;9.802;2023-03-11T10:53:16;4.77;;;1.80;;
3779;SDS011;1905;52.482;9.802;2023-03-11T10:55:47;1.93;;;1.77;;
3779;SDS011;1905;52.482;9.802;2023-03-11T10:58:17;4.70;;;1.60;;
3779;SDS011;1905;52.482;9.802;2023-03-11T11:00:57;2.40;;;2.00;;
3779;SDS011;1905;52.482;9.802;2023-03-11T11:03:26;8.43;;;2.43;;
3779;SDS011;1905;52.482;9.802;2023-03-11T11:05:58;2.33;;;1.97;;
3779;SDS011;1905;52.482;9.802;2023-03-11T11:08:28;1.33;;;1.30;;
3779;SDS011;1905;52.482;9.802;2023-03-11T11:10:58;4.60;;;1.70;;
3779;SDS011;1905;52.482;9.802;2023-03-11T11:13:27;2.80;;;1.70;;
3779;SDS011;1905;52.482;9.802;2023-03-11T11:15:57;2.60;;;2.40;;
3779;SDS011;1905;52.482;9.802;2023-03-11T11:18:27;4.30;;;2.73;;
3779;SDS011;1905;52.482;9.802;2023-03-11T11:20:58;6.40;;;1.73;;
3779;SDS011;1905;52.482;9.802;2023-03-11T11:23:32;3.97;;;2.57;;
3779;SDS011;1905;52.482;9.802;2023-03-11T11:26:05;2.53;;;2.20;;
3779;SDS011;1905;52.482;9.802;2023-03-11T11:28:40;1.93;;;1.73;;
3779;SDS011;1905;52.482;9.802;2023-03-11T11:31:18;3.93;;;1.60;;
3779;SDS011;1905;52.482;9.802;2023-03-11T11:33:48;2.00;;;1.80;;
3779;SDS011;1905;52.482;9.802;2023-03-11T11:36:18;2.87;;;1.60;;
3779;SDS011;1905;52.482;9.802;2023-03-11T11:38:50;6.77;;;2.10;;
3779;SDS011;1905;52.482;9.802;2023-03-11T11:41:20;2.83;;;1.80;;
3779;SDS011;1905;52.482;9.802;2023-03-11T11:43:53;6.90;;;2.53;;
3779;SDS011;1905;52.482;9.802;2023-03-11T11:46:24;4.20;;;3.30;;
3779;SDS011;1905;52.482;9.802;2023-03-11T11:49:01;4.03;;;3.30;;
3779;SDS011;1905;52.482;9.802;2023-03-11T11:51:35;4.53;;;3.70;;
3779;SDS011;1905;52.482;9.802;2023-03-11T11:54:10;6.73;;;2.30;;
3779;SDS011;1905;52.482;9.802;2023-03-11T11:56:44;3.93;;;3.10;;
3779;SDS011;1905;52.482;9.802;2023-03-11T11:59:15;7.97;;;3.20;;
3779;SDS011;1905;52.482;9.802;2023-03-11T12:01:47;9.60;;;2.60;;
3779;SDS011;1905;52.482;9.802;2023-03-11T12:04:29;2.70;;;2.23;;
3779;SDS011;1905;52.482;9.802;2023-03-11T12:07:14;4.50;;;2.63;;
3779;SDS011;1905;52.482;9.802;2023-03-11T12:09:52;6.77;;;2.83;;
3779;SDS011;1905;52.482;9.802;2023-03-11T12:12:44;3.47;;;2.80;;
3779;SDS011;1905;52.482;9.802;2023-03-11T12:15:18;2.03;;;1.40;;
3779;SDS011;1905;52.482;9.802;2023-03-11T12:17:49;5.63;;;2.40;;
3779;SDS011;1905;52.482;9.802;2023-03-11T12:20:24;5.80;;;2.80;;
3779;SDS011;1905;52.482;9.802;2023-03-11T12:23:05;7.33;;;2.53;;
3779;SDS011;1905;52.482;9.802;2023-03-11T12:25:44;2.47;;;2.27;;
3779;SDS011;1905;52.482;9.802;2023-03-11T12:28:27;3.70;;;2.90;;
3779;SDS011;1905;52.482;9.802;2023-03-11T12:31:06;4.47;;;2.07;;
3779;SDS011;1905;52.482;9.802;2023-03-11T12:33:36;2.47;;;1.90;;
3779;SDS011;1905;52.482;9.802;2023-03-11T12:36:06;3.60;;;2.10;;
3779;SDS011;1905;52.482;9.802;2023-03-11T12:38:46;3.63;;;1.77;;
3779;SDS011;1905;52.482;9.802;2023-03-11T12:41:31;5.00;;;2.30;;
3779;SDS011;1905;52.482;9.802;2023-03-11T12:49:51;1.90;;;1.80;;
3779;SDS011;1905;52.482;9.802;2023-03-11T12:52:24;3.20;;;1.57;;
3779;SDS011;1905;52.482;9.802;2023-03-11T12:57:57;2.63;;;1.83;;
3779;SDS011;1905;52.482;9.802;2023-03-11T13:00:41;2.97;;;2.00;;
3779;SDS011;1905;52.482;9.802;2023-03-11T13:03:26;1.90;;;1.77;;
3779;SDS011;1905;52.482;9.802;2023-03-11T13:06:04;3.13;;;1.80;;
3779;SDS011;1905;52.482;9.802;2023-03-11T13:08:47;3.13;;;1.60;;
3779;SDS011;1905;52.482;9.802;2023-03-11T13:11:27;2.50;;;1.83;;
3779;SDS011;1905;52.482;9.802;2023-03-11T13:14:09;5.40;;;1.67;;
3779;SDS011;1905;52.482;9.802;2023-03-11T13:16:49;6.83;;;1.97;;
3779;SDS011;1905;52.482;9.802;2023-03-11T13:19:27;2.40;;;1.67;;
3779;SDS011;1905;52.482;9.802;2023-03-11T13:22:01;2.03;;;1.90;;
3779;SDS011;1905;52.482;9.802;2023-03-11T13:24:39;6.73;;;1.70;;
3779;SDS011;1905;52.482;9.802;2023-03-11T13:27:16;2.40;;;2.07;;
3779;SDS011;1905;52.482;9.802;2023-03-11T13:29:57;3.27;;;1.93;;
3779;SDS011;1905;52.482;9.802;2023-03-11T13:32:49;3.77;;;1.50;;
3779;SDS011;1905;52.482;9.802;2023-03-11T13:35:32;5.37;;;1.90;;
3779;SDS011;1905;52.482;9.802;2023-03-11T13:38:13;6.97;;;3.43;;
3779;SDS011;1905;52.482;9.802;2023-03-11T13:40:52;1.67;;;1.40;;
3779;SDS011;1905;52.482;9.802;2023-03-11T13:43:21;2.90;;;1.80;;
3779;SDS011;1905;52.482;9.802;2023-03-11T13:45:51;10.73;;;2.10;;
3779;SDS011;1905;52.482;9.802;2023-03-11T13:48:25;1.70;;;1.60;;
3779;SDS011;1905;52.482;9.802;2023-03-11T13:50:57;1.50;;;1.40;;
3779;SDS011;1905;52.482;9.802;2023-03-11T13:53:28;2.20;;;1.43;;
3779;SDS011;1905;52.482;9.802;2023-03-11T13:56:00;1.30;;;1.20;;
3779;SDS011;1905;52.482;9.802;2023-03-11T13:58:28;6.83;;;2.00;;
3779;SDS011;1905;52.482;9.802;2023-03-11T14:00:56;9.63;;;1.43;;
3779;SDS011;1905;52.482;9.802;2023-03-11T14:03:27;1.57;;;1.47;;
3779;SDS011;1905;52.482;9.802;2023-03-11T14:05:59;3.50;;;1.33;;
3779;SDS011;1905;52.482;9.802;2023-03-11T14:08:29;3.60;;;1.53;;
3779;SDS011;1905;52.482;9.802;2023-03-11T14:10:58;1.53;;;1.43;;
3779;SDS011;1905;52.482;9.802;2023-03-11T14:13:27;2.93;;;1.33;;
3779;SDS011;1905;52.482;9.802;2023-03-11T14:15:57;1.67;;;1.43;;
3779;SDS011;1905;52.482;9.802;2023-03-11T14:18:33;2.30;;;1.43;;
3779;SDS011;1905;52.482;9.802;2023-03-11T14:21:04;2.43;;;1.60;;
3779;SDS011;1905;52.482;9.802;2023-03-11T14:23:34;1.40;;;1.30;;
3779;SDS011;1905;52.482;9.802;2023-03-11T14:26:06;1.47;;;1.37;;
3779;SDS011;1905;52.482;9.802;2023-03-11T14:28:39;1.27;;;1.17;;
3779;SDS011;1905;52.482;9.802;2023-03-11T14:31:20;1.57;;;1.40;;
3779;SDS011;1905;52.482;9.802;2023-03-11T14:33:57;1.33;;;1.10;;
3779;SDS011;1905;52.482;9.802;2023-03-11T14:36:30;8.10;;;1.63;;
3779;SDS011;1905;52.482;9.802;2023-03-11T14:39:24;1.70;;;1.60;;
3779;SDS011;1905;52.482;9.802;2023-03-11T14:41:54;1.90;;;1.40;;
3779;SDS011;1905;52.482;9.802;2023-03-11T14:44:24;1.47;;;1.20;;
3779;SDS011;1905;52.482;9.802;2023-03-11T14:46:55;1.40;;;1.30;;
3779;SDS011;1905;52.482;9.802;2023-03-11T14:49:31;2.77;;;1.40;;
3779;SDS011;1905;52.482;9.802;2023-03-11T14:52:00;3.10;;;1.43;;
3779;SDS011;1905;52.482;9.802;2023-03-11T14:54:32;1.57;;;1.47;;
3779;SDS011;1905;52.482;9.802;2023-03-11T14:57:03;8.20;;;1.93;;
3779;SDS011;1905;52.482;9.802;2023-03-11T14:59:33;4.40;;;1.80;;
3779;SDS011;1905;52.482;9.802;2023-03-11T15:02:08;1.90;;;1.70;;
3779;SDS011;1905;52.482;9.802;2023-03-11T15:04:54;3.43;;;1.70;;
3779;SDS011;1905;52.482;9.802;2023-03-11T15:07:25;2.20;;;2.00;;
3779;SDS011;1905;52.482;9.802;2023-03-11T15:09:53;2.60;;;2.40;;
3779;SDS011;1905;52.482;9.802;2023-03-11T15:12:29;1.80;;;1.70;;
3779;SDS011;1905;52.482;9.802;2023-03-11T15:14:58;8.23;;;1.87;;
3779;SDS011;1905;52.482;9.802;2023-03-11T15:17:26;1.57;;;1.27;;
3779;SDS011;1905;52.482;9.802;2023-03-11T15:22:55;5.20;;;1.60;;
3779;SDS011;1905;52.482;9.802;2023-03-11T15:25:26;4.43;;;2.50;;
3779;SDS011;1905;52.482;9.802;2023-03-11T15:27:57;10.40;;;1.60;;
3779;SDS011;1905;52.482;9.802;2023-03-11T15:30:25;2.83;;;2.00;;
3779;SDS011;1905;52.482;9.802;2023-03-11T15:32:55;2.40;;;1.60;;
3779;SDS011;1905;52.482;9.802;2023-03-11T15:35:25;2.60;;;2.20;;
3779;SDS011;1905;52.482;9.802;2023-03-11T15:40:38;5.83;;;1.70;;
3779;SDS011;1905;52.482;9.802;2023-03-11T15:43:19;1.93;;;1.50;;
3779;SDS011;1905;52.482;9.802;2023-03-11T15:45:50;1.60;;;1.50;;
3779;SDS011;1905;52.482;9.802;2023-03-11T15:48:19;2.20;;;2.00;;
3779;SDS011;1905;52.482;9.802;2023-03-11T15:50:49;2.97;;;1.80;;
3779;SDS011;1905;52.482;9.802;2023-03-11T15:53:20;2.50;;;1.47;;